createdAt,value
2018-08-11T00:00:59.598Z,74.22
2018-08-11T00:03:28.535Z,74.46
2018-08-11T00:05:57.931Z,73.88
2018-08-11T00:08:27.318Z,73.79
2018-08-11T00:10:56.458Z,73.48
2018-08-11T00:13:26.103Z,73.75
2018-08-11T00:15:55.142Z,73.88
2018-08-11T00:18:24.218Z,73.83
2018-08-11T00:20:53.459Z,73.94
2018-08-11T00:23:22.471Z,73.50
2018-08-11T00:25:52.143Z,73.64
2018-08-11T00:28:21.110Z,73.71
2018-08-11T00:30:50.294Z,73.69
2018-08-11T00:33:19.416Z,74.09
2018-08-11T00:35:48.406Z,74.62
2018-08-11T00:38:17.818Z,74.72
2018-08-11T00:40:46.867Z,75.04
2018-08-11T00:43:15.940Z,75.14
2018-08-11T00:45:45.096Z,75.14
2018-08-11T00:48:14.185Z,75.21
2018-08-11T00:50:43.597Z,75.19
2018-08-11T00:53:12.856Z,75.44
2018-08-11T00:55:41.856Z,75.48
2018-08-11T00:58:11.022Z,74.56
2018-08-11T01:00:40.052Z,74.40
2018-08-11T01:03:09.584Z,73.99
2018-08-11T01:05:38.603Z,73.85
2018-08-11T01:08:08.120Z,73.60
2018-08-11T01:10:37.222Z,73.98
2018-08-11T01:13:06.464Z,74.35
2018-08-11T01:15:35.557Z,74.08
2018-08-11T01:18:04.384Z,74.28
2018-08-11T01:20:34.138Z,73.69
2018-08-11T01:23:03.131Z,73.79
2018-08-11T01:25:32.390Z,73.89
2018-08-11T01:28:01.386Z,74.25
2018-08-11T01:30:30.505Z,74.10
2018-08-11T01:32:59.528Z,74.28
2018-08-11T01:35:29.287Z,74.20
2018-08-11T01:37:58.485Z,73.31
2018-08-11T01:40:28.883Z,73.42
2018-08-11T01:42:58.196Z,73.76
2018-08-11T01:45:27.279Z,73.79
2018-08-11T01:47:56.378Z,74.05
2018-08-11T01:50:26.239Z,73.65
2018-08-11T01:52:55.723Z,73.92
2018-08-11T01:55:24.821Z,73.75
2018-08-11T01:57:53.896Z,73.90
2018-08-11T02:00:23.214Z,74.22
2018-08-11T02:02:52.400Z,73.84
2018-08-11T02:05:21.517Z,74.08
2018-08-11T02:07:51.124Z,74.20
2018-08-11T02:10:21.291Z,73.85
2018-08-11T02:12:50.250Z,73.76
2018-08-11T02:15:19.442Z,73.43
2018-08-11T02:17:48.632Z,74.05
2018-08-11T02:20:18.796Z,73.22
2018-08-11T02:22:49.194Z,73.85
2018-08-11T02:25:18.436Z,73.78
2018-08-11T02:27:47.251Z,73.36
2018-08-11T02:30:17.484Z,73.55
2018-08-11T02:32:47.626Z,73.90
2018-08-11T02:35:17.441Z,73.80
2018-08-11T02:37:46.530Z,73.50
2018-08-11T02:40:16.621Z,73.29
2018-08-11T02:42:46.054Z,73.25
2018-08-11T02:45:16.537Z,73.64
2018-08-11T02:47:46.072Z,72.99
2018-08-11T02:50:15.055Z,72.60
2018-08-11T02:52:44.088Z,73.03
2018-08-11T02:55:13.248Z,73.09
2018-08-11T02:57:42.364Z,72.80
2018-08-11T03:00:12.643Z,73.01
2018-08-11T03:02:42.593Z,72.99
2018-08-11T03:05:12.041Z,72.87
2018-08-11T03:07:41.747Z,72.37
2018-08-11T03:10:12.066Z,72.13
2018-08-11T03:12:41.761Z,72.37
2018-08-11T03:15:11.927Z,71.62
2018-08-11T03:17:41.661Z,72.31
2018-08-11T03:20:14.081Z,71.87
2018-08-11T03:22:43.975Z,71.95
2018-08-11T03:25:13.155Z,71.22
2018-08-11T03:27:42.072Z,72.03
2018-08-11T03:30:12.009Z,71.95
2018-08-11T03:32:41.254Z,72.22
2018-08-11T03:35:10.771Z,71.41
2018-08-11T03:37:39.757Z,72.15
2018-08-11T03:40:09.960Z,71.91
2018-08-11T03:42:39.084Z,71.85
2018-08-11T03:45:08.337Z,71.37
2018-08-11T03:47:37.511Z,71.37
2018-08-11T03:50:07.020Z,71.72
2018-08-11T03:52:36.192Z,71.94
2018-08-11T03:55:05.630Z,72.53
2018-08-11T03:57:34.635Z,72.58
2018-08-11T04:00:03.734Z,72.34
2018-08-11T04:02:32.723Z,72.22
2018-08-11T04:05:01.864Z,72.96
2018-08-11T04:07:31.175Z,72.84
2018-08-11T04:10:00.735Z,72.31
2018-08-11T04:12:30.375Z,72.74
2018-08-11T04:14:59.425Z,72.63
2018-08-11T04:17:44.852Z,72.55
2018-08-11T04:20:14.215Z,72.81
2018-08-11T04:22:43.238Z,72.50
2018-08-11T04:25:12.270Z,73.36
2018-08-11T04:27:41.456Z,73.49
2018-08-11T04:30:11.558Z,74.01
2018-08-11T04:32:41.076Z,74.28
2018-08-11T04:35:10.447Z,74.84
2018-08-11T04:37:40.007Z,74.62
2018-08-11T04:40:08.989Z,74.94
2018-08-11T04:42:38.882Z,75.08
2018-08-11T04:45:08.581Z,75.89
2018-08-11T04:47:38.105Z,75.84
2018-08-11T04:50:07.259Z,76.22
2018-08-11T04:52:37.110Z,76.47
2018-08-11T04:55:06.373Z,76.08
2018-08-11T04:57:35.735Z,75.90
2018-08-11T05:00:05.835Z,75.58
2018-08-11T05:02:35.643Z,76.11
2018-08-11T05:05:05.271Z,75.79
2018-08-11T05:07:34.136Z,75.25
2018-08-11T05:10:03.334Z,75.77
2018-08-11T05:12:32.406Z,75.64
2018-08-11T05:15:01.723Z,75.47
2018-08-11T05:17:30.854Z,75.97
2018-08-11T05:19:59.969Z,75.10
2018-08-11T05:22:29.414Z,75.61
2018-08-11T05:24:58.749Z,75.77
2018-08-11T05:27:28.060Z,75.88
2018-08-11T05:29:57.415Z,75.65
2018-08-11T05:32:26.562Z,76.00
2018-08-11T05:34:56.330Z,75.40
2018-08-11T05:37:26.457Z,75.51
2018-08-11T05:39:55.788Z,75.92
2018-08-11T05:42:25.012Z,75.10
2018-08-11T05:44:54.678Z,75.65
2018-08-11T05:47:23.670Z,75.02
2018-08-11T05:49:52.840Z,74.33
2018-08-11T05:52:22.145Z,74.44
2018-08-11T05:54:51.563Z,74.52
2018-08-11T05:57:21.785Z,74.23
2018-08-11T05:59:50.865Z,74.55
2018-08-11T06:02:19.929Z,74.86
2018-08-11T06:04:48.911Z,74.73
2018-08-11T06:07:18.015Z,73.90
2018-08-11T06:09:47.571Z,73.90
2018-08-11T06:12:16.713Z,73.93
2018-08-11T06:14:45.937Z,73.20
2018-08-11T06:17:15.839Z,73.21
2018-08-11T06:19:45.210Z,72.48
2018-08-11T06:22:14.440Z,73.47
2018-08-11T06:24:43.767Z,73.46
2018-08-11T06:27:14.110Z,72.84
2018-08-11T06:29:43.397Z,73.25
2018-08-11T06:32:12.535Z,73.80
2018-08-11T06:34:41.724Z,72.67
2018-08-11T06:37:11.042Z,72.52
2018-08-11T06:39:40.323Z,72.63
2018-08-11T06:42:09.452Z,71.56
2018-08-11T06:44:38.648Z,72.58
2018-08-11T06:47:08.526Z,71.28
2018-08-11T06:49:38.592Z,70.93
2018-08-11T06:52:07.695Z,70.76
2018-08-11T06:54:36.700Z,71.09
2018-08-11T06:57:06.256Z,71.30
2018-08-11T06:59:35.173Z,70.56
2018-08-11T07:02:04.584Z,69.70
2018-08-11T07:04:34.238Z,69.30
2018-08-11T07:07:03.724Z,69.23
2018-08-11T07:09:32.973Z,68.69
2018-08-11T07:12:02.073Z,68.39
2018-08-11T07:14:31.218Z,68.39
2018-08-11T07:17:00.979Z,68.18
2018-08-11T07:19:30.589Z,67.93
2018-08-11T07:21:59.699Z,68.41
2018-08-11T07:24:28.858Z,67.92
2018-08-11T07:26:58.319Z,67.67
2018-08-11T07:29:27.515Z,66.97
2018-08-11T07:31:56.609Z,67.76
2018-08-11T07:34:25.793Z,67.69
2018-08-11T07:36:56.051Z,66.52
2018-08-11T07:39:25.322Z,67.11
2018-08-11T07:41:54.851Z,67.17
2018-08-11T07:44:24.020Z,66.84
2018-08-11T07:46:53.006Z,66.16
2018-08-11T07:49:22.054Z,66.70
2018-08-11T07:51:51.530Z,66.49
2018-08-11T07:54:20.609Z,66.15
2018-08-11T07:56:49.684Z,65.32
2018-08-11T07:59:18.709Z,65.62
2018-08-11T08:01:47.811Z,65.21
2018-08-11T08:04:17.027Z,64.31
2018-08-11T08:06:46.061Z,64.17
2018-08-11T08:09:15.165Z,64.64
2018-08-11T08:11:44.359Z,63.78
2018-08-11T08:14:13.858Z,63.28
2018-08-11T08:16:42.998Z,64.02
2018-08-11T08:19:12.842Z,64.80
2018-08-11T08:21:43.151Z,64.84
2018-08-11T08:24:13.446Z,64.08
2018-08-11T08:26:42.760Z,64.68
2018-08-11T08:29:12.225Z,64.27
2018-08-11T08:31:41.340Z,63.78
2018-08-11T08:34:10.428Z,63.82
2018-08-11T08:36:39.601Z,64.08
2018-08-11T08:39:11.037Z,64.71
2018-08-11T08:41:40.163Z,64.41
2018-08-11T08:44:09.394Z,64.81
2018-08-11T08:46:38.401Z,64.37
2018-08-11T08:49:07.726Z,64.10
2018-08-11T08:51:36.888Z,64.34
2018-08-11T08:54:06.142Z,63.78
2018-08-11T08:56:36.069Z,63.44
2018-08-11T08:59:05.417Z,63.04
2018-08-11T09:01:34.881Z,62.93
2018-08-11T09:04:04.745Z,63.48
2018-08-11T09:06:33.777Z,62.87
2018-08-11T09:09:03.092Z,62.34
2018-08-11T09:11:32.176Z,63.08
2018-08-11T09:14:02.120Z,62.39
2018-08-11T09:16:31.266Z,62.33
2018-08-11T09:19:00.666Z,63.06
2018-08-11T09:21:29.746Z,61.55
2018-08-11T09:23:58.834Z,61.60
2018-08-11T09:26:28.425Z,61.95
2018-08-11T09:28:57.826Z,61.13
2018-08-11T09:31:27.237Z,60.75
2018-08-11T09:33:56.739Z,60.99
2018-08-11T09:36:25.834Z,60.67
2018-08-11T09:38:54.978Z,60.71
2018-08-11T09:41:24.245Z,61.30
2018-08-11T09:43:53.234Z,61.10
2018-08-11T09:46:22.514Z,60.83
2018-08-11T09:48:51.620Z,61.18
2018-08-11T09:51:20.625Z,60.04
2018-08-11T09:53:49.983Z,60.62
2018-08-11T09:56:19.267Z,60.48
2018-08-11T09:58:48.328Z,60.30
2018-08-11T10:01:23.018Z,60.87
2018-08-11T10:03:52.152Z,60.73
2018-08-11T10:06:21.132Z,60.35
2018-08-11T10:08:50.226Z,60.24
2018-08-11T10:11:19.492Z,59.91
2018-08-11T10:13:48.527Z,59.59
2018-08-11T10:16:17.544Z,59.47
2018-08-11T10:18:46.792Z,58.83
2018-08-11T10:21:15.921Z,59.34
2018-08-11T10:23:44.983Z,59.39
2018-08-11T10:26:14.036Z,58.92
2018-08-11T10:28:43.002Z,59.25
2018-08-11T10:31:12.365Z,59.10
2018-08-11T10:33:41.806Z,58.30
2018-08-11T10:36:11.335Z,58.16
2018-08-11T10:38:40.641Z,57.81
2018-08-11T10:41:09.613Z,58.36
2018-08-11T10:43:39.410Z,57.65
2018-08-11T10:46:08.720Z,57.89
2018-08-11T10:48:37.664Z,58.10
2018-08-11T10:51:06.737Z,57.84
2018-08-11T10:53:36.111Z,57.91
2018-08-11T10:56:05.296Z,57.90
2018-08-11T10:58:34.568Z,56.84
2018-08-11T11:01:03.795Z,56.83
2018-08-11T11:03:33.240Z,57.38
2018-08-11T11:06:02.200Z,56.67
2018-08-11T11:08:31.242Z,57.03
2018-08-11T11:11:00.386Z,56.18
2018-08-11T11:13:29.595Z,56.42
2018-08-11T11:15:59.438Z,55.99
2018-08-11T11:18:28.967Z,55.29
2018-08-11T11:20:58.154Z,54.32
2018-08-11T11:23:27.366Z,54.58
2018-08-11T11:25:57.320Z,54.68
2018-08-11T11:28:26.331Z,54.33
2018-08-11T11:30:55.934Z,53.86
2018-08-11T11:33:24.893Z,53.87
2018-08-11T11:35:54.563Z,55.19
2018-08-11T11:38:23.528Z,53.27
2018-08-11T11:40:52.818Z,52.83
2018-08-11T11:43:21.966Z,51.35
2018-08-11T11:45:52.168Z,50.84
2018-08-11T11:48:21.297Z,51.31
2018-08-11T11:50:50.381Z,50.96
2018-08-11T11:53:19.538Z,49.69
2018-08-11T11:55:48.758Z,49.00
2018-08-11T11:58:18.055Z,47.48
2018-08-11T12:00:47.486Z,47.09
2018-08-11T12:03:16.536Z,47.10
2018-08-11T12:05:45.936Z,46.70
2018-08-11T12:08:15.343Z,46.08
2018-08-11T12:10:44.475Z,46.01
2018-08-11T12:13:13.786Z,44.52
2018-08-11T12:15:42.957Z,44.32
2018-08-11T12:18:12.019Z,43.99
2018-08-11T12:20:41.035Z,44.53
2018-08-11T12:23:10.232Z,43.96
2018-08-11T12:25:39.734Z,43.99
2018-08-11T12:28:08.616Z,42.68
2018-08-11T12:30:37.777Z,43.02
2018-08-11T12:33:07.285Z,42.12
2018-08-11T12:35:36.468Z,41.86
2018-08-11T12:38:05.536Z,42.59
2018-08-11T12:40:34.944Z,41.59
2018-08-11T12:43:03.962Z,41.10
2018-08-11T12:45:33.163Z,40.08
2018-08-11T12:48:02.450Z,40.28
2018-08-11T12:50:31.795Z,41.07
2018-08-11T12:53:01.469Z,40.74
2018-08-11T12:55:30.928Z,41.17
2018-08-11T12:57:59.894Z,40.29
2018-08-11T13:00:28.943Z,39.86
2018-08-11T13:02:58.045Z,40.20
2018-08-11T13:05:27.120Z,40.85
2018-08-11T13:07:56.186Z,40.01
2018-08-11T13:10:25.519Z,40.66
2018-08-11T13:12:54.628Z,40.46
2018-08-11T13:15:23.896Z,40.31
2018-08-11T13:17:54.315Z,40.79
2018-08-11T13:20:23.305Z,40.04
2018-08-11T13:22:52.512Z,40.62
2018-08-11T13:25:22.607Z,40.55
2018-08-11T13:27:51.894Z,40.19
2018-08-11T13:30:21.242Z,40.81
2018-08-11T13:32:50.560Z,40.86
2018-08-11T13:35:19.793Z,40.77
2018-08-11T13:37:48.810Z,40.11
2018-08-11T13:40:17.915Z,40.08
2018-08-11T13:42:47.232Z,41.04
2018-08-11T13:45:16.811Z,40.40
2018-08-11T13:47:45.942Z,40.55
2018-08-11T13:50:15.088Z,40.04
2018-08-11T13:52:44.249Z,39.72
2018-08-11T13:55:13.768Z,39.81
2018-08-11T13:57:43.038Z,39.57
2018-08-11T14:00:12.049Z,40.25
2018-08-11T14:02:41.292Z,39.77
2018-08-11T14:05:10.735Z,39.51
2018-08-11T14:07:39.882Z,38.42
2018-08-11T14:10:10.545Z,38.85
2018-08-11T14:12:39.941Z,38.65
2018-08-11T14:15:09.535Z,38.12
2018-08-11T14:17:39.822Z,37.63
2018-08-11T14:20:10.362Z,37.63
2018-08-11T14:22:40.090Z,38.43
2018-08-11T14:25:09.260Z,37.23
2018-08-11T14:27:38.482Z,37.36
2018-08-11T14:30:09.781Z,37.39
2018-08-11T14:32:39.179Z,36.70
2018-08-11T14:35:09.329Z,36.25
2018-08-11T14:37:38.695Z,37.23
2018-08-11T14:40:08.993Z,37.71
2018-08-11T14:42:38.870Z,36.42
2018-08-11T14:45:10.054Z,36.23
2018-08-11T14:47:39.365Z,36.94
2018-08-11T14:50:08.316Z,36.29
2018-08-11T14:52:37.530Z,36.17
2018-08-11T14:55:06.864Z,36.36
2018-08-11T14:57:35.858Z,35.49
2018-08-11T15:00:08.062Z,36.23
2018-08-11T15:02:37.246Z,35.69
2018-08-11T15:05:07.004Z,35.53
2018-08-11T15:07:36.344Z,34.54
2018-08-11T15:10:06.379Z,35.30
2018-08-11T15:12:35.877Z,34.78
2018-08-11T15:15:06.419Z,34.18
2018-08-11T15:17:35.435Z,34.23
2018-08-11T15:20:05.215Z,34.95
2018-08-11T15:22:34.427Z,34.82
2018-08-11T15:25:03.599Z,34.79
2018-08-11T15:27:32.655Z,34.84
2018-08-11T15:30:02.695Z,34.19
2018-08-11T15:32:32.216Z,33.85
2018-08-11T15:35:01.262Z,34.68
2018-08-11T15:37:30.357Z,34.16
2018-08-11T15:39:59.311Z,33.32
2018-08-11T15:42:28.361Z,33.90
2018-08-11T15:44:57.694Z,34.05
2018-08-11T15:47:26.848Z,33.95
2018-08-11T15:49:56.316Z,33.33
2018-08-11T15:52:25.771Z,33.36
2018-08-11T15:54:55.028Z,34.09
2018-08-11T15:57:24.077Z,33.96
2018-08-11T15:59:53.034Z,33.56
2018-08-11T16:02:25.306Z,33.27
2018-08-11T16:04:57.682Z,33.80
2018-08-11T16:07:29.967Z,33.72
2018-08-11T16:10:01.743Z,33.76
2018-08-11T16:12:33.825Z,33.51
2018-08-11T16:15:03.095Z,33.92
2018-08-11T16:17:32.057Z,33.47
2018-08-11T16:20:01.451Z,33.93
2018-08-11T16:22:30.648Z,33.78
2018-08-11T16:24:59.882Z,34.32
2018-08-11T16:27:29.380Z,33.29
2018-08-11T16:29:58.775Z,34.39
2018-08-11T16:32:28.446Z,33.46
2018-08-11T16:34:57.499Z,33.89
2018-08-11T16:37:26.592Z,33.42
2018-08-11T16:39:56.016Z,34.29
2018-08-11T16:42:25.236Z,34.01
2018-08-11T16:44:54.910Z,34.02
2018-08-11T16:47:23.986Z,34.03
2018-08-11T16:49:53.098Z,33.45
2018-08-11T16:52:22.308Z,33.65
2018-08-11T16:54:52.015Z,34.01
2018-08-11T16:57:21.523Z,34.68
2018-08-11T16:59:57.100Z,34.70
2018-08-11T17:02:26.221Z,34.67
2018-08-11T17:04:55.378Z,34.41
2018-08-11T17:07:24.611Z,34.53
2018-08-11T17:09:53.604Z,34.74
2018-08-11T17:12:22.650Z,34.63
2018-08-11T17:14:51.719Z,33.89
2018-08-11T17:17:22.358Z,34.63
2018-08-11T17:19:51.747Z,34.43
2018-08-11T17:22:20.736Z,34.08
2018-08-11T17:24:50.163Z,34.00
2018-08-11T17:27:19.450Z,34.24
2018-08-11T17:29:48.586Z,34.82
2018-08-11T17:32:17.772Z,35.15
2018-08-11T17:34:47.039Z,34.51
2018-08-11T17:37:16.458Z,35.43
2018-08-11T17:39:45.550Z,35.17
2018-08-11T17:42:14.414Z,35.45
2018-08-11T17:44:43.564Z,34.75
2018-08-11T17:47:12.745Z,34.77
2018-08-11T17:49:42.041Z,34.77
2018-08-11T17:52:11.215Z,34.15
2018-08-11T17:54:40.226Z,33.89
2018-08-11T17:57:09.834Z,33.45
2018-08-11T17:59:39.134Z,33.64
2018-08-11T18:02:08.819Z,34.16
2018-08-11T18:04:38.163Z,34.16
2018-08-11T18:07:07.612Z,33.59
2018-08-11T18:09:38.536Z,33.85
2018-08-11T18:12:07.964Z,34.41
2018-08-11T18:14:37.119Z,34.98
2018-08-11T18:17:06.200Z,34.33
2018-08-11T18:19:35.938Z,35.11
2018-08-11T18:22:05.093Z,35.72
2018-08-11T18:24:34.306Z,35.41
2018-08-11T18:27:03.195Z,35.78
2018-08-11T18:29:32.292Z,36.18
2018-08-11T18:32:01.753Z,35.92
2018-08-11T18:34:31.317Z,35.98
2018-08-11T18:37:00.526Z,36.14
2018-08-11T18:39:29.658Z,36.71
2018-08-11T18:41:58.784Z,36.94
2018-08-11T18:44:28.476Z,37.16
2018-08-11T18:46:57.551Z,37.05
2018-08-11T18:49:27.400Z,37.39
2018-08-11T18:51:56.567Z,37.43
2018-08-11T18:54:25.865Z,37.05
2018-08-11T18:56:55.008Z,37.99
2018-08-11T18:59:24.748Z,37.31
2018-08-11T19:01:53.665Z,38.82
2018-08-11T19:04:22.809Z,37.72
2018-08-11T19:06:52.125Z,37.98
2018-08-11T19:09:21.296Z,37.94
2018-08-11T19:11:50.729Z,38.93
2018-08-11T19:14:19.899Z,38.72
2018-08-11T19:16:49.058Z,38.99
2018-08-11T19:19:18.123Z,38.60
2018-08-11T19:21:47.379Z,39.26
2018-08-11T19:24:16.798Z,38.95
2018-08-11T19:26:45.938Z,39.94
2018-08-11T19:29:15.207Z,39.49
2018-08-11T19:31:44.530Z,39.79
2018-08-11T19:34:13.810Z,39.49
2018-08-11T19:36:43.163Z,39.56
2018-08-11T19:39:13.147Z,39.49
2018-08-11T19:41:42.522Z,39.85
2018-08-11T19:44:11.843Z,39.94
2018-08-11T19:46:41.163Z,40.14
2018-08-11T19:49:10.479Z,40.49
2018-08-11T19:51:39.885Z,40.15
2018-08-11T19:54:09.121Z,39.92
2018-08-11T19:56:38.180Z,40.55
2018-08-11T19:59:07.972Z,40.91
2018-08-11T20:01:37.490Z,40.79
2018-08-11T20:04:07.007Z,40.56
2018-08-11T20:06:36.167Z,40.90
2018-08-11T20:09:07.207Z,41.00
2018-08-11T20:11:36.480Z,40.75
2018-08-11T20:14:06.478Z,40.82
2018-08-11T20:16:35.862Z,41.31
2018-08-11T20:19:05.632Z,41.92
2018-08-11T20:21:34.855Z,41.35
2018-08-11T20:24:04.215Z,41.09
2018-08-11T20:26:33.447Z,41.59
2018-08-11T20:29:02.657Z,41.73
2018-08-11T20:31:32.667Z,42.01
2018-08-11T20:34:02.419Z,41.71
2018-08-11T20:36:34.645Z,41.93
2018-08-11T20:39:04.523Z,42.21
2018-08-11T20:41:33.966Z,42.23
2018-08-11T20:44:03.202Z,42.20
2018-08-11T20:46:33.004Z,42.67
2018-08-11T20:49:02.098Z,42.22
2018-08-11T20:51:31.402Z,42.47
2018-08-11T20:54:00.979Z,42.69
2018-08-11T20:56:30.466Z,42.97
2018-08-11T20:59:00.474Z,42.55
2018-08-11T21:01:29.832Z,42.87
2018-08-11T21:04:05.733Z,43.41
2018-08-11T21:06:35.134Z,42.88
2018-08-11T21:09:04.387Z,43.09
2018-08-11T21:11:33.416Z,43.76
2018-08-11T21:14:03.047Z,43.40
2018-08-11T21:16:32.060Z,43.32
2018-08-11T21:19:01.663Z,43.21
2018-08-11T21:21:30.663Z,44.12
2018-08-11T21:23:59.964Z,43.83
2018-08-11T21:26:29.299Z,43.90
2018-08-11T21:28:58.861Z,43.60
2018-08-11T21:31:27.987Z,43.88
2018-08-11T21:33:57.985Z,44.13
2018-08-11T21:36:27.198Z,44.11
2018-08-11T21:38:56.504Z,44.09
2018-08-11T21:41:26.418Z,44.59
2018-08-11T21:43:55.577Z,44.01
2018-08-11T21:46:25.170Z,44.76
2018-08-11T21:48:54.581Z,44.76
2018-08-11T21:51:23.905Z,44.38
2018-08-11T21:53:54.433Z,44.82
2018-08-11T21:56:23.717Z,44.50
2018-08-11T21:58:52.662Z,44.27
2018-08-11T22:01:22.643Z,44.29
2018-08-11T22:03:51.728Z,44.91
2018-08-11T22:06:21.657Z,44.83
2018-08-11T22:08:51.286Z,44.58
2018-08-11T22:11:20.363Z,45.25
2018-08-11T22:13:49.343Z,44.54
2018-08-11T22:16:18.415Z,45.36
2018-08-11T22:18:48.938Z,44.68
2018-08-11T22:21:24.308Z,45.47
2018-08-11T22:23:53.501Z,45.60
2018-08-11T22:26:23.225Z,45.00
2018-08-11T22:28:53.152Z,45.42
2018-08-11T22:31:22.204Z,45.71
2018-08-11T22:33:51.319Z,45.48
2018-08-11T22:36:21.046Z,45.05
2018-08-11T22:38:50.047Z,45.62
2018-08-11T22:41:19.143Z,45.73
2018-08-11T22:43:48.428Z,45.35
2018-08-11T22:46:17.715Z,46.08
2018-08-11T22:48:46.743Z,46.13
2018-08-11T22:51:16.035Z,45.78
2018-08-11T22:53:45.442Z,45.85
2018-08-11T22:56:14.670Z,45.75
2018-08-11T22:58:45.292Z,46.57
2018-08-11T23:01:14.656Z,46.79
2018-08-11T23:03:43.896Z,45.93
2018-08-11T23:06:13.466Z,46.20
2018-08-11T23:08:43.022Z,46.57
2018-08-11T23:11:12.144Z,46.91
2018-08-11T23:13:41.266Z,46.57
2018-08-11T23:16:10.543Z,46.07
2018-08-11T23:18:39.610Z,46.72
2018-08-11T23:21:09.072Z,46.71
2018-08-11T23:23:38.569Z,46.41
2018-08-11T23:26:07.803Z,46.45
2018-08-11T23:28:36.895Z,46.31
2018-08-11T23:31:06.030Z,47.02
2018-08-11T23:33:35.044Z,46.33
2018-08-11T23:36:04.253Z,46.90
2018-08-11T23:38:33.440Z,46.55
2018-08-11T23:41:02.577Z,46.55
2018-08-11T23:43:32.221Z,46.30
2018-08-11T23:46:01.261Z,47.08
2018-08-11T23:48:30.651Z,47.27
2018-08-11T23:51:00.061Z,46.63
2018-08-11T23:53:29.153Z,46.89
2018-08-11T23:55:58.483Z,46.80
2018-08-11T23:58:27.737Z,47.44
